sensor_id;sensor_type;location;lat;lon;timestamp;pressure;altitude;pressure_sealevel;temperature;humidity
11971;BME280;6045;42.682;23.294;2022-08-19T00:01:18;94388.72;;;25.74;51.15
11971;BME280;6045;42.682;23.294;2022-08-19T00:03:45;94398.22;;;25.76;52.42
11971;BME280;6045;42.682;23.294;2022-08-19T00:06:12;94394.88;;;25.71;52.49
11971;BME280;6045;42.682;23.294;2022-08-19T00:08:39;94393.59;;;25.68;51.85
11971;BME280;6045;42.682;23.294;2022-08-19T00:11:06;94385.22;;;25.65;53.51
11971;BME280;6045;42.682;23.294;2022-08-19T00:13:34;94390.66;;;25.73;54.52
11971;BME280;6045;42.682;23.294;2022-08-19T00:16:02;94393.03;;;25.84;54.88
11971;BME280;6045;42.682;23.294;2022-08-19T00:18:31;94396.84;;;25.91;55.16
11971;BME280;6045;42.682;23.294;2022-08-19T00:20:58;94404.06;;;25.96;54.23
11971;BME280;6045;42.682;23.294;2022-08-19T00:23:25;94409.22;;;25.97;52.77
11971;BME280;6045;42.682;23.294;2022-08-19T00:25:53;94408.59;;;25.92;53.64
11971;BME280;6045;42.682;23.294;2022-08-19T00:28:20;94412.81;;;25.89;53.74
11971;BME280;6045;42.682;23.294;2022-08-19T00:30:47;94414.72;;;25.89;54.06
11971;BME280;6045;42.682;23.294;2022-08-19T00:33:15;94406.03;;;25.87;53.99
11971;BME280;6045;42.682;23.294;2022-08-19T00:35:42;94401.56;;;25.82;53.73
11971;BME280;6045;42.682;23.294;2022-08-19T00:38:09;94400.63;;;25.78;51.94
11971;BME280;6045;42.682;23.294;2022-08-19T00:40:36;94399.59;;;25.62;52.38
11971;BME280;6045;42.682;23.294;2022-08-19T00:43:08;94389.50;;;25.45;51.43
11971;BME280;6045;42.682;23.294;2022-08-19T00:45:35;94391.91;;;25.38;53.57
11971;BME280;6045;42.682;23.294;2022-08-19T00:48:02;94393.50;;;25.39;54.88
11971;BME280;6045;42.682;23.294;2022-08-19T00:50:31;94391.44;;;25.36;54.34
11971;BME280;6045;42.682;23.294;2022-08-19T00:52:59;94392.72;;;25.39;53.78
11971;BME280;6045;42.682;23.294;2022-08-19T00:55:30;94393.66;;;25.43;55.25
11971;BME280;6045;42.682;23.294;2022-08-19T00:58:00;94398.66;;;25.49;55.54
11971;BME280;6045;42.682;23.294;2022-08-19T01:00:29;94392.53;;;25.52;55.77
11971;BME280;6045;42.682;23.294;2022-08-19T01:02:56;94395.75;;;25.54;56.70
11971;BME280;6045;42.682;23.294;2022-08-19T01:05:28;94392.53;;;25.52;54.20
11971;BME280;6045;42.682;23.294;2022-08-19T01:07:59;94395.28;;;25.52;54.99
11971;BME280;6045;42.682;23.294;2022-08-19T01:10:31;94397.19;;;25.52;54.12
11971;BME280;6045;42.682;23.294;2022-08-19T01:12:59;94399.59;;;25.53;55.46
11971;BME280;6045;42.682;23.294;2022-08-19T01:15:30;94394.81;;;25.50;56.07
11971;BME280;6045;42.682;23.294;2022-08-19T01:17:59;94393.66;;;25.51;56.63
11971;BME280;6045;42.682;23.294;2022-08-19T01:20:27;94390.78;;;25.48;55.76
11971;BME280;6045;42.682;23.294;2022-08-19T01:22:57;94390.31;;;25.46;55.43
11971;BME280;6045;42.682;23.294;2022-08-19T01:25:27;94388.19;;;25.43;55.97
11971;BME280;6045;42.682;23.294;2022-08-19T01:27:56;94380.31;;;25.41;55.96
11971;BME280;6045;42.682;23.294;2022-08-19T01:30:31;94390.00;;;25.39;57.06
11971;BME280;6045;42.682;23.294;2022-08-19T01:32:58;94390.78;;;25.39;56.37
11971;BME280;6045;42.682;23.294;2022-08-19T01:35:28;94398.19;;;25.39;56.75
11971;BME280;6045;42.682;23.294;2022-08-19T01:37:58;94390.97;;;25.34;55.46
11971;BME280;6045;42.682;23.294;2022-08-19T01:40:28;94397.09;;;25.31;55.26
11971;BME280;6045;42.682;23.294;2022-08-19T01:42:56;94393.06;;;25.29;55.58
11971;BME280;6045;42.682;23.294;2022-08-19T01:45:26;94397.91;;;25.23;55.54
11971;BME280;6045;42.682;23.294;2022-08-19T01:47:54;94398.59;;;25.20;55.45
11971;BME280;6045;42.682;23.294;2022-08-19T01:50:21;94399.91;;;25.05;55.95
11971;BME280;6045;42.682;23.294;2022-08-19T01:52:48;94398.16;;;25.01;54.21
11971;BME280;6045;42.682;23.294;2022-08-19T01:55:18;94394.78;;;24.95;55.82
11971;BME280;6045;42.682;23.294;2022-08-19T01:57:53;94394.94;;;24.90;57.86
11971;BME280;6045;42.682;23.294;2022-08-19T02:00:24;94401.69;;;24.93;56.99
11971;BME280;6045;42.682;23.294;2022-08-19T02:02:52;94404.59;;;24.96;57.67
11971;BME280;6045;42.682;23.294;2022-08-19T02:05:19;94403.16;;;24.99;57.58
11971;BME280;6045;42.682;23.294;2022-08-19T02:07:47;94409.09;;;25.01;58.25
11971;BME280;6045;42.682;23.294;2022-08-19T02:10:19;94401.84;;;25.05;58.70
11971;BME280;6045;42.682;23.294;2022-08-19T02:12:47;94396.38;;;25.05;59.29
11971;BME280;6045;42.682;23.294;2022-08-19T02:15:14;94392.97;;;25.08;59.05
11971;BME280;6045;42.682;23.294;2022-08-19T02:17:43;94389.91;;;25.09;59.10
11971;BME280;6045;42.682;23.294;2022-08-19T02:20:11;94386.84;;;25.11;59.25
11971;BME280;6045;42.682;23.294;2022-08-19T02:22:39;94392.81;;;25.13;58.00
11971;BME280;6045;42.682;23.294;2022-08-19T02:25:07;94399.88;;;25.14;58.57
11971;BME280;6045;42.682;23.294;2022-08-19T02:27:35;94393.94;;;25.12;57.39
11971;BME280;6045;42.682;23.294;2022-08-19T02:30:09;94398.47;;;25.08;57.83
11971;BME280;6045;42.682;23.294;2022-08-19T02:32:37;94399.09;;;25.05;58.07
11971;BME280;6045;42.682;23.294;2022-08-19T02:35:07;94398.16;;;25.01;58.13
11971;BME280;6045;42.682;23.294;2022-08-19T02:37:34;94399.91;;;24.97;58.38
11971;BME280;6045;42.682;23.294;2022-08-19T02:40:19;94394.78;;;24.95;59.17
11971;BME280;6045;42.682;23.294;2022-08-19T02:42:47;94403.44;;;24.97;58.93
11971;BME280;6045;42.682;23.294;2022-08-19T02:45:15;94392.69;;;25.01;60.06
11971;BME280;6045;42.682;23.294;2022-08-19T02:47:41;94398.63;;;25.03;58.15
11971;BME280;6045;42.682;23.294;2022-08-19T02:50:09;94403.75;;;25.04;58.03
11971;BME280;6045;42.682;23.294;2022-08-19T02:52:36;94397.47;;;25.04;58.46
11971;BME280;6045;42.682;23.294;2022-08-19T02:55:04;94404.56;;;25.05;59.07
11971;BME280;6045;42.682;23.294;2022-08-19T02:57:32;94409.56;;;25.03;58.25
11971;BME280;6045;42.682;23.294;2022-08-19T03:00:02;94402.47;;;25.02;57.96
11971;BME280;6045;42.682;23.294;2022-08-19T03:02:30;94402.00;;;25.00;57.28
11971;BME280;6045;42.682;23.294;2022-08-19T03:04:57;94405.25;;;24.93;58.23
11971;BME280;6045;42.682;23.294;2022-08-19T03:07:24;94411.22;;;24.87;58.27
11971;BME280;6045;42.682;23.294;2022-08-19T03:09:50;94410.22;;;24.83;56.75
11971;BME280;6045;42.682;23.294;2022-08-19T03:12:18;94408.13;;;24.71;57.64
11971;BME280;6045;42.682;23.294;2022-08-19T03:14:44;94405.38;;;24.71;58.57
11971;BME280;6045;42.682;23.294;2022-08-19T03:17:13;94401.22;;;24.65;57.64
11971;BME280;6045;42.682;23.294;2022-08-19T03:19:40;94403.47;;;24.63;57.71
11971;BME280;6045;42.682;23.294;2022-08-19T03:22:08;94407.19;;;24.59;58.09
11971;BME280;6045;42.682;23.294;2022-08-19T03:24:35;94407.66;;;24.61;58.24
11971;BME280;6045;42.682;23.294;2022-08-19T03:27:02;94402.50;;;24.59;58.94
11971;BME280;6045;42.682;23.294;2022-08-19T03:29:31;94400.56;;;24.60;59.50
11971;BME280;6045;42.682;23.294;2022-08-19T03:31:59;94406.84;;;24.60;60.94
11971;BME280;6045;42.682;23.294;2022-08-19T03:34:30;94405.75;;;24.61;59.22
11971;BME280;6045;42.682;23.294;2022-08-19T03:37:03;94404.25;;;24.64;59.35
11971;BME280;6045;42.682;23.294;2022-08-19T03:39:31;94402.03;;;24.66;60.26
11971;BME280;6045;42.682;23.294;2022-08-19T03:41:58;94400.41;;;24.65;60.19
11971;BME280;6045;42.682;23.294;2022-08-19T03:44:25;94412.31;;;24.60;59.56
11971;BME280;6045;42.682;23.294;2022-08-19T03:46:53;94424.69;;;24.66;59.65
11971;BME280;6045;42.682;23.294;2022-08-19T03:49:23;94429.38;;;24.66;59.11
11971;BME280;6045;42.682;23.294;2022-08-19T03:51:54;94428.41;;;24.79;60.82
11971;BME280;6045;42.682;23.294;2022-08-19T03:54:23;94434.19;;;24.86;60.36
11971;BME280;6045;42.682;23.294;2022-08-19T03:56:52;94425.84;;;24.91;59.44
11971;BME280;6045;42.682;23.294;2022-08-19T03:59:22;94427.75;;;24.99;57.91
11971;BME280;6045;42.682;23.294;2022-08-19T04:01:51;94428.84;;;25.06;57.85
11971;BME280;6045;42.682;23.294;2022-08-19T04:04:18;94434.16;;;25.11;57.40
11971;BME280;6045;42.682;23.294;2022-08-19T04:06:45;94440.91;;;25.14;57.47
11971;BME280;6045;42.682;23.294;2022-08-19T04:09:14;94443.63;;;25.23;56.94
11971;BME280;6045;42.682;23.294;2022-08-19T04:11:43;94441.00;;;25.35;56.36
11971;BME280;6045;42.682;23.294;2022-08-19T04:14:13;94438.28;;;25.43;56.23
11971;BME280;6045;42.682;23.294;2022-08-19T04:16:40;94439.25;;;25.47;56.12
11971;BME280;6045;42.682;23.294;2022-08-19T04:19:08;94439.53;;;25.54;55.89
11971;BME280;6045;42.682;23.294;2022-08-19T04:21:34;94449.84;;;25.57;55.77
11971;BME280;6045;42.682;23.294;2022-08-19T04:24:02;94448.41;;;25.60;55.45
11971;BME280;6045;42.682;23.294;2022-08-19T04:26:32;94453.06;;;25.59;56.25
11971;BME280;6045;42.682;23.294;2022-08-19T04:29:05;94450.28;;;25.68;55.82
11971;BME280;6045;42.682;23.294;2022-08-19T04:31:32;94457.31;;;25.77;55.29
11971;BME280;6045;42.682;23.294;2022-08-19T04:34:03;94455.22;;;25.83;55.18
11971;BME280;6045;42.682;23.294;2022-08-19T04:36:34;94451.03;;;25.86;55.02
11971;BME280;6045;42.682;23.294;2022-08-19T04:39:05;94450.63;;;25.96;54.26
11971;BME280;6045;42.682;23.294;2022-08-19T04:41:34;94447.72;;;26.01;54.68
11971;BME280;6045;42.682;23.294;2022-08-19T04:44:18;94450.25;;;26.06;54.91
11971;BME280;6045;42.682;23.294;2022-08-19T04:46:46;94450.03;;;26.19;54.81
11971;BME280;6045;42.682;23.294;2022-08-19T04:49:14;94452.28;;;26.26;54.43
11971;BME280;6045;42.682;23.294;2022-08-19T04:51:43;94448.66;;;26.34;54.48
11971;BME280;6045;42.682;23.294;2022-08-19T04:54:11;94450.56;;;26.42;53.99
11971;BME280;6045;42.682;23.294;2022-08-19T04:56:40;94448.91;;;26.50;54.06
11971;BME280;6045;42.682;23.294;2022-08-19T04:59:07;94455.44;;;26.57;54.23
11971;BME280;6045;42.682;23.294;2022-08-19T05:01:36;94458.19;;;26.57;54.32
11971;BME280;6045;42.682;23.294;2022-08-19T05:04:04;94456.06;;;26.63;54.43
11971;BME280;6045;42.682;23.294;2022-08-19T05:06:33;94454.03;;;26.72;53.57
11971;BME280;6045;42.682;23.294;2022-08-19T05:09:00;94462.91;;;26.77;54.75
11971;BME280;6045;42.682;23.294;2022-08-19T05:11:29;94460.09;;;26.86;54.62
11971;BME280;6045;42.682;23.294;2022-08-19T05:13:57;94451.56;;;26.99;53.86
11971;BME280;6045;42.682;23.294;2022-08-19T05:16:26;94460.75;;;27.03;53.61
11971;BME280;6045;42.682;23.294;2022-08-19T05:18:54;94459.66;;;27.17;53.34
11971;BME280;6045;42.682;23.294;2022-08-19T05:21:40;94461.63;;;27.28;53.72
11971;BME280;6045;42.682;23.294;2022-08-19T05:24:25;94465.94;;;27.38;52.95
11971;BME280;6045;42.682;23.294;2022-08-19T05:26:53;94467.91;;;27.49;52.74
11971;BME280;6045;42.682;23.294;2022-08-19T05:29:26;94465.31;;;27.65;51.91
11971;BME280;6045;42.682;23.294;2022-08-19T05:31:57;94463.75;;;27.76;51.43
11971;BME280;6045;42.682;23.294;2022-08-19T05:34:25;94463.41;;;27.90;51.05
11971;BME280;6045;42.682;23.294;2022-08-19T05:36:53;94463.53;;;28.05;50.93
11971;BME280;6045;42.682;23.294;2022-08-19T05:39:25;94459.44;;;28.23;50.93
11971;BME280;6045;42.682;23.294;2022-08-19T05:41:55;94469.19;;;28.33;49.52
11971;BME280;6045;42.682;23.294;2022-08-19T05:44:24;94455.28;;;28.41;49.97
11971;BME280;6045;42.682;23.294;2022-08-19T05:46:52;94464.00;;;28.56;49.78
11971;BME280;6045;42.682;23.294;2022-08-19T05:49:21;94461.66;;;28.82;48.17
11971;BME280;6045;42.682;23.294;2022-08-19T05:51:49;94462.56;;;28.86;47.52
11971;BME280;6045;42.682;23.294;2022-08-19T05:54:16;94457.31;;;28.81;47.42
11971;BME280;6045;42.682;23.294;2022-08-19T05:56:43;94456.38;;;28.89;48.43
11971;BME280;6045;42.682;23.294;2022-08-19T05:59:15;94462.19;;;28.99;47.69
11971;BME280;6045;42.682;23.294;2022-08-19T06:01:49;94462.50;;;29.10;47.17
11971;BME280;6045;42.682;23.294;2022-08-19T06:04:17;94464.78;;;29.20;46.78
11971;BME280;6045;42.682;23.294;2022-08-19T06:06:53;94473.50;;;29.22;46.44
11971;BME280;6045;42.682;23.294;2022-08-19T06:12:13;94468.34;;;29.48;44.61
11971;BME280;6045;42.682;23.294;2022-08-19T06:14:39;94463.72;;;29.68;44.80
11971;BME280;6045;42.682;23.294;2022-08-19T06:17:08;94466.38;;;29.76;44.23
11971;BME280;6045;42.682;23.294;2022-08-19T06:19:44;94478.91;;;29.90;43.62
11971;BME280;6045;42.682;23.294;2022-08-19T06:22:17;94475.69;;;30.03;42.50
11971;BME280;6045;42.682;23.294;2022-08-19T06:24:44;94475.09;;;30.10;43.21
11971;BME280;6045;42.682;23.294;2022-08-19T06:27:16;94468.03;;;30.28;43.18
11971;BME280;6045;42.682;23.294;2022-08-19T06:29:44;94479.44;;;30.42;43.32
11971;BME280;6045;42.682;23.294;2022-08-19T06:32:16;94472.22;;;30.53;42.69
11971;BME280;6045;42.682;23.294;2022-08-19T06:34:43;94475.69;;;30.66;43.57
11971;BME280;6045;42.682;23.294;2022-08-19T06:37:11;94474.03;;;30.80;43.51
11971;BME280;6045;42.682;23.294;2022-08-19T06:39:40;94472.06;;;30.96;41.61
11971;BME280;6045;42.682;23.294;2022-08-19T06:42:08;94470.53;;;30.83;41.43
11971;BME280;6045;42.682;23.294;2022-08-19T06:44:38;94471.91;;;31.08;41.17
11971;BME280;6045;42.682;23.294;2022-08-19T06:47:08;94471.63;;;31.14;41.80
11971;BME280;6045;42.682;23.294;2022-08-19T06:49:36;94469.91;;;31.44;41.22
11971;BME280;6045;42.682;23.294;2022-08-19T06:52:05;94472.03;;;31.73;40.46
11971;BME280;6045;42.682;23.294;2022-08-19T06:54:33;94478.88;;;31.98;40.44
11971;BME280;6045;42.682;23.294;2022-08-19T06:57:01;94477.38;;;32.04;39.09
11971;BME280;6045;42.682;23.294;2022-08-19T06:59:30;94474.50;;;31.97;39.80
11971;BME280;6045;42.682;23.294;2022-08-19T07:02:00;94473.63;;;32.16;39.34
11971;BME280;6045;42.682;23.294;2022-08-19T07:04:30;94486.22;;;32.59;37.43
11971;BME280;6045;42.682;23.294;2022-08-19T07:07:00;94479.41;;;32.79;36.03
11971;BME280;6045;42.682;23.294;2022-08-19T07:09:28;94475.91;;;33.08;36.25
11971;BME280;6045;42.682;23.294;2022-08-19T07:11:56;94485.09;;;33.16;36.64
11971;BME280;6045;42.682;23.294;2022-08-19T07:14:25;94479.31;;;33.28;35.85
11971;BME280;6045;42.682;23.294;2022-08-19T07:16:55;94481.31;;;32.75;36.44
11971;BME280;6045;42.682;23.294;2022-08-19T07:19:24;94485.00;;;32.82;36.66
11971;BME280;6045;42.682;23.294;2022-08-19T07:21:53;94481.00;;;33.06;36.38
11971;BME280;6045;42.682;23.294;2022-08-19T07:24:24;94487.25;;;33.29;34.99
11971;BME280;6045;42.682;23.294;2022-08-19T07:26:53;94479.63;;;33.52;35.27
11971;BME280;6045;42.682;23.294;2022-08-19T07:29:21;94476.09;;;33.89;34.72
11971;BME280;6045;42.682;23.294;2022-08-19T07:31:49;94481.16;;;33.80;33.78
11971;BME280;6045;42.682;23.294;2022-08-19T07:34:16;94477.31;;;33.91;34.85
11971;BME280;6045;42.682;23.294;2022-08-19T07:36:44;94479.59;;;34.22;34.52
11971;BME280;6045;42.682;23.294;2022-08-19T07:39:12;94472.63;;;34.39;34.12
11971;BME280;6045;42.682;23.294;2022-08-19T07:41:42;94478.44;;;34.23;34.25
11971;BME280;6045;42.682;23.294;2022-08-19T07:44:09;94471.41;;;34.36;34.03
11971;BME280;6045;42.682;23.294;2022-08-19T07:46:38;94479.81;;;34.44;33.87
11971;BME280;6045;42.682;23.294;2022-08-19T07:49:06;94474.41;;;34.61;34.42
11971;BME280;6045;42.682;23.294;2022-08-19T07:51:34;94474.50;;;34.72;32.88
11971;BME280;6045;42.682;23.294;2022-08-19T07:54:01;94485.63;;;34.75;34.03
11971;BME280;6045;42.682;23.294;2022-08-19T07:56:27;94477.50;;;35.03;33.18
11971;BME280;6045;42.682;23.294;2022-08-19T07:58:56;94477.19;;;35.16;31.95
11971;BME280;6045;42.682;23.294;2022-08-19T08:01:25;94475.94;;;35.10;32.73
11971;BME280;6045;42.682;23.294;2022-08-19T08:03:53;94476.47;;;35.33;32.27
11971;BME280;6045;42.682;23.294;2022-08-19T08:06:38;94475.06;;;35.74;31.51
11971;BME280;6045;42.682;23.294;2022-08-19T08:09:25;94484.63;;;35.77;31.20
11971;BME280;6045;42.682;23.294;2022-08-19T08:11:54;94471.88;;;35.65;30.19
11971;BME280;6045;42.682;23.294;2022-08-19T08:14:25;94477.47;;;35.79;31.36
11971;BME280;6045;42.682;23.294;2022-08-19T08:16:53;94475.88;;;35.85;31.60
11971;BME280;6045;42.682;23.294;2022-08-19T08:19:22;94468.06;;;36.22;31.53
11971;BME280;6045;42.682;23.294;2022-08-19T08:21:50;94463.28;;;36.41;30.40
11971;BME280;6045;42.682;23.294;2022-08-19T08:24:20;94466.84;;;36.45;30.92
11971;BME280;6045;42.682;23.294;2022-08-19T08:26:49;94464.06;;;36.45;30.24
11971;BME280;6045;42.682;23.294;2022-08-19T08:29:18;94467.28;;;36.71;30.05
11971;BME280;6045;42.682;23.294;2022-08-19T08:31:47;94463.28;;;36.90;28.94
11971;BME280;6045;42.682;23.294;2022-08-19T08:34:14;94462.06;;;36.91;29.17
11971;BME280;6045;42.682;23.294;2022-08-19T08:36:43;94454.56;;;36.67;29.02
11971;BME280;6045;42.682;23.294;2022-08-19T08:39:12;94454.13;;;37.07;28.45
11971;BME280;6045;42.682;23.294;2022-08-19T08:41:47;94459.31;;;36.94;28.63
11971;BME280;6045;42.682;23.294;2022-08-19T08:44:21;94459.72;;;36.93;28.39
11971;BME280;6045;42.682;23.294;2022-08-19T08:46:53;94460.50;;;37.04;28.54
11971;BME280;6045;42.682;23.294;2022-08-19T08:49:28;94451.38;;;36.72;27.41
11971;BME280;6045;42.682;23.294;2022-08-19T08:52:00;94452.16;;;36.69;27.36
11971;BME280;6045;42.682;23.294;2022-08-19T08:54:34;94447.34;;;36.80;26.82
11971;BME280;6045;42.682;23.294;2022-08-19T08:57:09;94449.72;;;37.13;27.46
11971;BME280;6045;42.682;23.294;2022-08-19T08:59:40;94447.94;;;37.65;27.13
11971;BME280;6045;42.682;23.294;2022-08-19T09:02:09;94446.88;;;38.14;25.21
11971;BME280;6045;42.682;23.294;2022-08-19T09:04:36;94439.28;;;38.14;25.59
11971;BME280;6045;42.682;23.294;2022-08-19T09:07:17;94438.00;;;38.26;25.92
11971;BME280;6045;42.682;23.294;2022-08-19T09:09:49;94441.69;;;38.67;25.49
11971;BME280;6045;42.682;23.294;2022-08-19T09:12:25;94430.06;;;38.76;25.48
11971;BME280;6045;42.682;23.294;2022-08-19T09:15:03;94434.84;;;38.79;25.71
11971;BME280;6045;42.682;23.294;2022-08-19T09:17:32;94426.88;;;38.70;24.85
11971;BME280;6045;42.682;23.294;2022-08-19T09:20:02;94425.84;;;38.54;25.82
11971;BME280;6045;42.682;23.294;2022-08-19T09:22:33;94426.63;;;38.58;25.19
11971;BME280;6045;42.682;23.294;2022-08-19T09:25:01;94424.94;;;38.67;25.07
11971;BME280;6045;42.682;23.294;2022-08-19T09:27:28;94424.09;;;38.74;25.12
11971;BME280;6045;42.682;23.294;2022-08-19T09:29:58;94421.59;;;38.86;24.27
11971;BME280;6045;42.682;23.294;2022-08-19T09:32:25;94419.41;;;39.01;23.39
11971;BME280;6045;42.682;23.294;2022-08-19T09:34:54;94414.63;;;39.02;23.96
11971;BME280;6045;42.682;23.294;2022-08-19T09:37:23;94416.13;;;39.10;23.82
11971;BME280;6045;42.682;23.294;2022-08-19T09:39:50;94416.75;;;39.28;23.55
11971;BME280;6045;42.682;23.294;2022-08-19T09:42:17;94418.56;;;39.41;23.21
11971;BME280;6045;42.682;23.294;2022-08-19T09:44:44;94414.59;;;39.39;23.07
11971;BME280;6045;42.682;23.294;2022-08-19T09:47:12;94412.44;;;39.84;22.93
11971;BME280;6045;42.682;23.294;2022-08-19T09:49:40;94406.41;;;40.15;22.41
11971;BME280;6045;42.682;23.294;2022-08-19T09:52:10;94408.75;;;39.90;22.09
11971;BME280;6045;42.682;23.294;2022-08-19T09:54:37;94406.41;;;39.55;20.70
11971;BME280;6045;42.682;23.294;2022-08-19T09:57:04;94405.28;;;39.49;21.79
11971;BME280;6045;42.682;23.294;2022-08-19T09:59:31;94402.41;;;39.56;23.21
11971;BME280;6045;42.682;23.294;2022-08-19T10:01:58;94401.09;;;39.94;22.11
11971;BME280;6045;42.682;23.294;2022-08-19T10:04:25;94405.63;;;40.15;22.53
11971;BME280;6045;42.682;23.294;2022-08-19T10:07:14;94393.63;;;39.54;20.58
11971;BME280;6045;42.682;23.294;2022-08-19T10:09:41;94389.19;;;39.56;22.23
11971;BME280;6045;42.682;23.294;2022-08-19T10:12:08;94393.16;;;39.89;21.95
11971;BME280;6045;42.682;23.294;2022-08-19T10:14:35;94379.59;;;39.88;21.42
11971;BME280;6045;42.682;23.294;2022-08-19T10:17:02;94385.03;;;39.98;21.78
11971;BME280;6045;42.682;23.294;2022-08-19T10:19:29;94378.31;;;40.19;22.94
11971;BME280;6045;42.682;23.294;2022-08-19T10:22:03;94388.19;;;40.00;21.86
11971;BME280;6045;42.682;23.294;2022-08-19T10:24:34;94383.81;;;39.73;21.16
11971;BME280;6045;42.682;23.294;2022-08-19T10:27:01;94379.94;;;39.63;22.80
11971;BME280;6045;42.682;23.294;2022-08-19T10:29:29;94379.63;;;39.84;22.45
11971;BME280;6045;42.682;23.294;2022-08-19T10:31:59;94371.56;;;39.90;21.97
11971;BME280;6045;42.682;23.294;2022-08-19T10:34:30;94368.53;;;39.77;20.50
11971;BME280;6045;42.682;23.294;2022-08-19T10:36:57;94376.91;;;40.07;21.57
11971;BME280;6045;42.682;23.294;2022-08-19T10:39:29;94370.00;;;40.39;20.22
11971;BME280;6045;42.682;23.294;2022-08-19T10:41:57;94373.03;;;40.51;20.29
11971;BME280;6045;42.682;23.294;2022-08-19T10:44:24;94368.44;;;40.61;20.15
11971;BME280;6045;42.682;23.294;2022-08-19T10:46:52;94362.06;;;40.80;20.11
11971;BME280;6045;42.682;23.294;2022-08-19T10:49:18;94363.56;;;40.84;20.13
11971;BME280;6045;42.682;23.294;2022-08-19T10:51:46;94361.97;;;40.87;19.92
11971;BME280;6045;42.682;23.294;2022-08-19T10:54:30;94362.75;;;40.64;19.94
11971;BME280;6045;42.682;23.294;2022-08-19T10:57:14;94355.75;;;40.53;21.59
11971;BME280;6045;42.682;23.294;2022-08-19T10:59:41;94361.91;;;40.67;22.07
11971;BME280;6045;42.682;23.294;2022-08-19T11:02:10;94358.97;;;40.74;20.22
11971;BME280;6045;42.682;23.294;2022-08-19T11:04:37;94355.19;;;40.61;19.66
11971;BME280;6045;42.682;23.294;2022-08-19T11:07:05;94358.69;;;40.46;21.29
11971;BME280;6045;42.682;23.294;2022-08-19T11:09:37;94353.63;;;40.60;21.25
11971;BME280;6045;42.682;23.294;2022-08-19T11:12:05;94354.78;;;40.63;19.96
11971;BME280;6045;42.682;23.294;2022-08-19T11:14:34;94353.91;;;40.66;20.60
11971;BME280;6045;42.682;23.294;2022-08-19T11:17:01;94350.47;;;40.58;20.15
11971;BME280;6045;42.682;23.294;2022-08-19T11:19:29;94346.78;;;40.15;21.70
11971;BME280;6045;42.682;23.294;2022-08-19T11:21:59;94338.78;;;39.87;21.98
11971;BME280;6045;42.682;23.294;2022-08-19T11:24:27;94341.91;;;39.92;22.17
11971;BME280;6045;42.682;23.294;2022-08-19T11:27:01;94341.00;;;39.99;20.53
11971;BME280;6045;42.682;23.294;2022-08-19T11:29:30;94341.47;;;39.67;21.03
11971;BME280;6045;42.682;23.294;2022-08-19T11:31:59;94336.69;;;39.68;22.76
11971;BME280;6045;42.682;23.294;2022-08-19T11:34:29;94333.34;;;39.46;22.89
11971;BME280;6045;42.682;23.294;2022-08-19T11:36:56;94327.09;;;39.05;22.34
11971;BME280;6045;42.682;23.294;2022-08-19T11:39:27;94325.81;;;38.75;21.69
11971;BME280;6045;42.682;23.294;2022-08-19T11:41:55;94325.72;;;38.45;22.73
11971;BME280;6045;42.682;23.294;2022-08-19T11:44:22;94318.59;;;38.37;23.63
11971;BME280;6045;42.682;23.294;2022-08-19T11:46:49;94317.97;;;37.67;24.11
11971;BME280;6045;42.682;23.294;2022-08-19T11:49:19;94313.75;;;37.38;23.79
11971;BME280;6045;42.682;23.294;2022-08-19T11:51:47;94315.69;;;37.52;24.10
11971;BME280;6045;42.682;23.294;2022-08-19T11:54:16;94311.72;;;37.46;25.24
11971;BME280;6045;42.682;23.294;2022-08-19T11:56:43;94310.66;;;37.81;23.83
11971;BME280;6045;42.682;23.294;2022-08-19T11:59:11;94309.47;;;38.37;24.45
11971;BME280;6045;42.682;23.294;2022-08-19T12:01:39;94311.44;;;38.77;23.62
11971;BME280;6045;42.682;23.294;2022-08-19T12:04:07;94303.66;;;38.91;23.38
11971;BME280;6045;42.682;23.294;2022-08-19T12:06:37;94303.47;;;38.75;22.55
11971;BME280;6045;42.682;23.294;2022-08-19T12:09:08;94286.81;;;38.61;23.76
11971;BME280;6045;42.682;23.294;2022-08-19T12:11:36;94294.75;;;38.66;22.90
11971;BME280;6045;42.682;23.294;2022-08-19T12:14:04;94286.16;;;38.87;23.66
11971;BME280;6045;42.682;23.294;2022-08-19T12:16:32;94286.88;;;38.91;22.26
11971;BME280;6045;42.682;23.294;2022-08-19T12:19:00;94286.91;;;38.54;22.76
11971;BME280;6045;42.682;23.294;2022-08-19T12:21:30;94280.06;;;38.59;23.52
11971;BME280;6045;42.682;23.294;2022-08-19T12:24:00;94274.31;;;38.76;23.86
11971;BME280;6045;42.682;23.294;2022-08-19T12:26:30;94271.28;;;38.94;23.51
11971;BME280;6045;42.682;23.294;2022-08-19T12:28:58;94269.16;;;39.05;23.70
11971;BME280;6045;42.682;23.294;2022-08-19T12:31:25;94266.03;;;38.99;23.49
11971;BME280;6045;42.682;23.294;2022-08-19T12:33:53;94266.22;;;39.16;23.03
11971;BME280;6045;42.682;23.294;2022-08-19T12:36:20;94265.34;;;39.22;24.30
11971;BME280;6045;42.682;23.294;2022-08-19T12:38:48;94257.63;;;39.30;23.15
11971;BME280;6045;42.682;23.294;2022-08-19T12:41:17;94260.00;;;39.31;22.44
11971;BME280;6045;42.682;23.294;2022-08-19T12:43:45;94253.94;;;39.36;22.45
11971;BME280;6045;42.682;23.294;2022-08-19T12:46:14;94255.25;;;39.55;21.96
11971;BME280;6045;42.682;23.294;2022-08-19T12:48:41;94248.09;;;39.54;22.89
11971;BME280;6045;42.682;23.294;2022-08-19T12:51:12;94253.00;;;39.46;23.21
11971;BME280;6045;42.682;23.294;2022-08-19T12:53:40;94245.88;;;39.42;22.73
11971;BME280;6045;42.682;23.294;2022-08-19T12:56:09;94252.44;;;39.55;22.72
11971;BME280;6045;42.682;23.294;2022-08-19T12:58:37;94245.34;;;39.50;21.39
11971;BME280;6045;42.682;23.294;2022-08-19T13:01:09;94242.56;;;39.24;21.63
11971;BME280;6045;42.682;23.294;2022-08-19T13:03:36;94236.28;;;38.82;21.96
11971;BME280;6045;42.682;23.294;2022-08-19T13:06:03;94236.03;;;38.70;22.63
11971;BME280;6045;42.682;23.294;2022-08-19T13:08:30;94234.16;;;38.60;23.00
11971;BME280;6045;42.682;23.294;2022-08-19T13:10:57;94232.16;;;38.60;22.75
11971;BME280;6045;42.682;23.294;2022-08-19T13:13:24;94231.19;;;38.40;22.70